createdAt,value
2023-01-19T00:00:12.151Z,98376.98
2023-01-19T00:03:15.952Z,98377.44
2023-01-19T00:05:52.753Z,98378.61
2023-01-19T00:08:26.067Z,98380.48
2023-01-19T00:11:18.825Z,98375.47
2023-01-19T00:13:51.969Z,98381.73
2023-01-19T00:16:30.150Z,98393.54
2023-01-19T00:19:13.646Z,98393.47
2023-01-19T00:21:51.605Z,98385.34
2023-01-19T00:24:23.878Z,98385.92
2023-01-19T00:26:56.254Z,98386.17
2023-01-19T00:29:33.603Z,98388.17
2023-01-19T00:32:07.128Z,98391.55
2023-01-19T00:34:42.749Z,98396.32
2023-01-19T00:37:16.079Z,98395.48
2023-01-19T00:39:49.134Z,98397.44
2023-01-19T00:42:41.821Z,98392.79
2023-01-19T00:45:16.675Z,98392.94
2023-01-19T00:47:58.066Z,98403.71
2023-01-19T00:50:38.153Z,98415.05
2023-01-19T00:53:10.803Z,98422.02
2023-01-19T00:55:43.229Z,98424.44
2023-01-19T00:58:15.362Z,98429.13
2023-01-19T01:00:47.477Z,98425.73
2023-01-19T01:03:28.167Z,98422.37
2023-01-19T01:06:09.999Z,98417.69
2023-01-19T01:08:44.184Z,98421.77
2023-01-19T01:11:17.684Z,98417.17
2023-01-19T01:13:50.872Z,98416.88
2023-01-19T01:16:25.893Z,98411.38
2023-01-19T01:19:00.750Z,98413.75
2023-01-19T01:21:34.689Z,98411.10
2023-01-19T01:24:08.039Z,98406.73
2023-01-19T01:26:48.210Z,98399.41
2023-01-19T01:29:24.038Z,98399.42
2023-01-19T01:32:01.404Z,98398.35
2023-01-19T01:34:33.946Z,98397.61
2023-01-19T01:37:09.983Z,98398.77
2023-01-19T01:39:45.466Z,98405.21
2023-01-19T01:42:31.525Z,98402.14
2023-01-19T01:45:29.836Z,98404.03
2023-01-19T01:48:07.559Z,98405.23
2023-01-19T01:51:03.970Z,98405.92
2023-01-19T01:53:38.602Z,98399.58
2023-01-19T01:56:16.479Z,98403.56
2023-01-19T01:58:51.905Z,98410.44
2023-01-19T02:01:41.977Z,98409.49
2023-01-19T02:04:17.586Z,98416.06
2023-01-19T02:07:07.734Z,98419.21
2023-01-19T02:09:59.119Z,98417.91
2023-01-19T02:12:50.641Z,98419.64
2023-01-19T02:15:28.045Z,98421.18
2023-01-19T02:18:00.419Z,98416.26
2023-01-19T02:21:00.836Z,98410.56
2023-01-19T02:23:44.106Z,98408.34
2023-01-19T02:26:23.450Z,98408.60
2023-01-19T02:28:59.355Z,98404.27
2023-01-19T02:31:33.955Z,98404.36
2023-01-19T02:34:08.243Z,98398.22
2023-01-19T02:36:52.141Z,98401.23
2023-01-19T02:39:30.401Z,98406.74
2023-01-19T02:42:09.102Z,98411.00
2023-01-19T02:44:53.518Z,98411.80
2023-01-19T02:47:28.848Z,98404.60
2023-01-19T02:50:01.831Z,98408.34
2023-01-19T02:52:34.207Z,98411.39
2023-01-19T02:55:19.444Z,98413.42
2023-01-19T02:58:00.904Z,98419.89
2023-01-19T03:00:48.076Z,98420.01
2023-01-19T03:03:32.039Z,98426.92
2023-01-19T03:06:11.614Z,98442.44
2023-01-19T03:08:53.255Z,98453.35
2023-01-19T03:11:30.428Z,98452.51
2023-01-19T03:14:13.509Z,98467.77
2023-01-19T03:16:49.139Z,98477.23
2023-01-19T03:19:28.372Z,98477.64
2023-01-19T03:22:06.864Z,98473.34
2023-01-19T03:24:43.393Z,98469.17
2023-01-19T03:27:26.392Z,98469.39
2023-01-19T03:30:02.941Z,98467.27
2023-01-19T03:32:41.074Z,98469.05
2023-01-19T03:35:17.661Z,98475.26
2023-01-19T03:37:53.081Z,98471.59
2023-01-19T03:40:28.996Z,98466.89
2023-01-19T03:43:05.578Z,98469.34
2023-01-19T03:45:41.926Z,98477.16
2023-01-19T03:48:17.781Z,98479.98
2023-01-19T03:50:50.519Z,98486.25
2023-01-19T03:53:23.691Z,98490.44
2023-01-19T03:55:55.906Z,98495.50
2023-01-19T03:58:28.332Z,98503.92
2023-01-19T04:01:00.942Z,98513.40
2023-01-19T04:03:33.657Z,98522.73
2023-01-19T04:06:07.732Z,98537.25
2023-01-19T04:08:40.794Z,98543.44
2023-01-19T04:11:15.355Z,98549.03
2023-01-19T04:13:47.850Z,98549.98
2023-01-19T04:16:21.345Z,98554.89
2023-01-19T04:18:54.722Z,98554.70
2023-01-19T04:21:25.392Z,98555.89
2023-01-19T04:23:57.838Z,98558.25
2023-01-19T04:26:30.250Z,98568.48
2023-01-19T04:29:05.693Z,98572.30
2023-01-19T04:31:40.536Z,98572.13
2023-01-19T04:34:13.039Z,98575.73
2023-01-19T04:36:48.095Z,98575.48
2023-01-19T04:39:40.678Z,98574.41
2023-01-19T04:42:13.133Z,98575.81
2023-01-19T04:45:05.959Z,98577.59
2023-01-19T04:47:53.015Z,98567.58
2023-01-19T04:50:25.452Z,98570.02
2023-01-19T04:52:58.463Z,98570.75
2023-01-19T04:55:33.923Z,98577.58
2023-01-19T04:58:11.873Z,98584.70
2023-01-19T05:00:55.525Z,98594.00
2023-01-19T05:03:31.304Z,98605.39
2023-01-19T05:06:20.520Z,98608.61
2023-01-19T05:09:02.031Z,98613.04
2023-01-19T05:11:32.495Z,98614.56
2023-01-19T05:14:13.822Z,98621.45
2023-01-19T05:16:48.782Z,98625.95
2023-01-19T05:19:23.846Z,98628.83
2023-01-19T05:22:18.320Z,98626.64
2023-01-19T05:24:50.582Z,98623.40
2023-01-19T05:27:22.829Z,98625.34
2023-01-19T05:29:55.160Z,98632.16
2023-01-19T05:32:27.780Z,98633.24
2023-01-19T05:35:00.219Z,98627.91
2023-01-19T05:37:32.767Z,98615.66
2023-01-19T05:40:05.627Z,98613.81
2023-01-19T05:42:41.037Z,98609.23
2023-01-19T05:45:16.578Z,98609.19
2023-01-19T05:47:49.088Z,98616.56
2023-01-19T05:50:21.395Z,98619.59
2023-01-19T05:52:54.201Z,98624.73
2023-01-19T05:55:28.854Z,98625.54
2023-01-19T05:58:01.487Z,98631.53
2023-01-19T06:00:36.164Z,98625.59
2023-01-19T06:03:06.967Z,98615.21
2023-01-19T06:05:40.363Z,98609.92
2023-01-19T06:08:12.774Z,98610.36
2023-01-19T06:10:44.748Z,98606.54
2023-01-19T06:13:17.487Z,98613.64
2023-01-19T06:15:49.772Z,98621.40
2023-01-19T06:18:21.419Z,98627.65
2023-01-19T06:20:58.662Z,98632.19
2023-01-19T06:23:33.197Z,98631.36
2023-01-19T06:26:06.375Z,98634.95
2023-01-19T06:28:38.725Z,98633.69
2023-01-19T06:31:11.210Z,98642.02
2023-01-19T06:33:45.907Z,98644.60
2023-01-19T06:36:18.312Z,98640.27
2023-01-19T06:38:50.621Z,98642.95
2023-01-19T06:41:23.127Z,98645.52
2023-01-19T06:43:58.438Z,98652.33
2023-01-19T06:46:30.890Z,98656.85
2023-01-19T06:49:23.679Z,98665.45
2023-01-19T06:51:59.306Z,98668.64
2023-01-19T06:54:43.456Z,98674.48
2023-01-19T06:57:20.929Z,98680.45
2023-01-19T06:59:53.490Z,98684.50
2023-01-19T07:02:28.545Z,98687.08
2023-01-19T07:05:01.417Z,98689.61
2023-01-19T07:07:33.768Z,98692.30
2023-01-19T07:10:08.178Z,98694.77
2023-01-19T07:12:40.855Z,98692.89
2023-01-19T07:15:14.084Z,98698.58
2023-01-19T07:17:46.797Z,98702.28
2023-01-19T07:20:19.710Z,98697.34
2023-01-19T07:22:59.024Z,98691.77
2023-01-19T07:25:31.797Z,98688.67
2023-01-19T07:28:09.385Z,98684.31
2023-01-19T07:30:42.571Z,98688.92
2023-01-19T07:33:17.846Z,98690.04
2023-01-19T07:35:51.533Z,98694.11
2023-01-19T07:38:24.081Z,98695.20
2023-01-19T07:41:03.025Z,98705.49
2023-01-19T07:43:38.179Z,98712.32
2023-01-19T07:46:10.907Z,98710.83
2023-01-19T07:48:47.548Z,98708.16
2023-01-19T07:51:39.923Z,98707.31
2023-01-19T07:54:14.792Z,98711.95
2023-01-19T07:56:47.173Z,98713.54
2023-01-19T07:59:19.757Z,98721.71
2023-01-19T08:01:53.520Z,98733.27
2023-01-19T08:04:26.255Z,98745.10
2023-01-19T08:06:58.764Z,98747.27
2023-01-19T08:09:30.914Z,98749.60
2023-01-19T08:12:06.751Z,98752.38
2023-01-19T08:14:39.370Z,98756.65
2023-01-19T08:17:14.762Z,98754.84
2023-01-19T08:19:47.088Z,98751.36
2023-01-19T08:22:19.251Z,98754.52
2023-01-19T08:24:51.850Z,98752.05
2023-01-19T08:27:24.584Z,98752.70
2023-01-19T08:29:59.583Z,98748.02
2023-01-19T08:32:30.226Z,98748.72
2023-01-19T08:35:02.562Z,98744.55
2023-01-19T08:37:35.070Z,98746.76
2023-01-19T08:40:10.183Z,98741.23
2023-01-19T08:42:42.756Z,98739.32
2023-01-19T08:45:15.350Z,98743.08
2023-01-19T08:47:47.963Z,98742.04
2023-01-19T08:50:20.935Z,98741.70
2023-01-19T08:52:53.468Z,98738.08
2023-01-19T08:55:26.076Z,98739.64
2023-01-19T08:58:00.107Z,98739.06
2023-01-19T09:00:34.505Z,98744.81
2023-01-19T09:03:12.383Z,98753.48
2023-01-19T09:06:08.960Z,98757.07
2023-01-19T09:08:41.367Z,98766.05
2023-01-19T09:11:12.810Z,98774.45
2023-01-19T09:13:45.650Z,98793.52
2023-01-19T09:16:18.447Z,98803.27
2023-01-19T09:18:51.006Z,98808.31
2023-01-19T09:21:21.568Z,98811.40
2023-01-19T09:23:54.760Z,98818.17
2023-01-19T09:26:27.265Z,98816.70
2023-01-19T09:29:08.778Z,98813.10
2023-01-19T09:31:41.751Z,98811.16
2023-01-19T09:34:14.028Z,98803.58
2023-01-19T09:36:47.401Z,98798.50
2023-01-19T09:39:20.138Z,98792.93
2023-01-19T09:42:07.095Z,98786.91
2023-01-19T09:44:40.541Z,98780.11
2023-01-19T09:47:21.356Z,98772.83
2023-01-19T09:50:00.220Z,98772.92
2023-01-19T09:52:36.004Z,98770.23
2023-01-19T09:55:18.950Z,98760.88
2023-01-19T09:57:51.310Z,98755.70
2023-01-19T10:00:27.662Z,98746.14
2023-01-19T10:03:08.987Z,98745.39
2023-01-19T10:05:45.828Z,98738.42
2023-01-19T10:08:30.891Z,98730.71
2023-01-19T10:11:03.475Z,98728.45
2023-01-19T10:13:45.172Z,98738.36
2023-01-19T10:16:32.120Z,98735.82
2023-01-19T10:19:24.999Z,98737.48
2023-01-19T10:21:59.923Z,98741.63
2023-01-19T10:24:39.753Z,98743.33
2023-01-19T10:27:25.507Z,98742.34
2023-01-19T10:29:58.488Z,98750.06
2023-01-19T10:32:34.103Z,98748.74
2023-01-19T10:35:22.488Z,98749.34
2023-01-19T10:37:58.093Z,98745.91
2023-01-19T10:40:40.290Z,98751.16
2023-01-19T10:43:38.071Z,98753.02
2023-01-19T10:46:20.689Z,98753.02
2023-01-19T10:48:55.329Z,98750.74
2023-01-19T10:51:27.781Z,98751.05
2023-01-19T10:54:03.356Z,98748.95
2023-01-19T10:56:39.496Z,98745.83
2023-01-19T10:59:33.969Z,98745.03
2023-01-19T11:02:22.536Z,98743.91
2023-01-19T11:04:57.273Z,98738.47
2023-01-19T11:07:33.179Z,98737.43
2023-01-19T11:10:25.923Z,98738.23
2023-01-19T11:13:12.869Z,98734.15
2023-01-19T11:15:50.091Z,98729.67
2023-01-19T11:18:34.974Z,98719.94
2023-01-19T11:21:09.410Z,98722.83
2023-01-19T11:23:47.785Z,98722.48
2023-01-19T11:26:28.974Z,98725.46
2023-01-19T11:29:06.186Z,98730.04
2023-01-19T11:32:13.444Z,98733.09
2023-01-19T11:35:21.386Z,98729.23
2023-01-19T11:38:08.080Z,98729.08
2023-01-19T11:40:53.123Z,98732.10
2023-01-19T11:43:43.369Z,98734.23
2023-01-19T11:46:21.061Z,98736.69
2023-01-19T11:49:01.917Z,98735.73
2023-01-19T11:51:41.371Z,98734.15
2023-01-19T11:54:23.877Z,98729.52
2023-01-19T11:56:59.373Z,98726.41
2023-01-19T11:59:31.895Z,98727.41
2023-01-19T12:02:12.432Z,98725.55
2023-01-19T12:04:48.164Z,98724.63
2023-01-19T12:07:25.762Z,98729.35
2023-01-19T12:10:15.274Z,98732.41
2023-01-19T12:12:49.319Z,98733.70
2023-01-19T12:15:37.433Z,98735.42
2023-01-19T12:18:20.607Z,98736.75
2023-01-19T12:20:55.828Z,98737.39
2023-01-19T12:23:38.332Z,98736.64
2023-01-19T12:26:34.466Z,98734.25
2023-01-19T12:29:13.300Z,98731.91
2023-01-19T12:31:45.697Z,98731.09
2023-01-19T12:34:46.691Z,98730.42
2023-01-19T12:37:41.687Z,98737.40
2023-01-19T12:40:29.137Z,98734.28
2023-01-19T12:43:04.395Z,98737.63
2023-01-19T12:45:39.893Z,98741.06
2023-01-19T12:48:27.640Z,98739.90
2023-01-19T12:50:59.868Z,98741.95
2023-01-19T12:53:37.629Z,98737.33
2023-01-19T12:56:13.999Z,98737.73
2023-01-19T12:58:51.115Z,98735.52
2023-01-19T13:01:24.964Z,98732.34
2023-01-19T13:04:07.377Z,98726.77
2023-01-19T13:06:55.539Z,98732.34
2023-01-19T13:09:38.163Z,98729.79
2023-01-19T13:12:23.220Z,98729.55
2023-01-19T13:15:29.182Z,98729.41
2023-01-19T13:18:03.568Z,98732.38
2023-01-19T13:20:47.752Z,98737.76
2023-01-19T13:23:23.747Z,98742.42
2023-01-19T13:26:04.118Z,98744.83
2023-01-19T13:28:43.630Z,98750.36
2023-01-19T13:31:17.143Z,98761.06
2023-01-19T13:33:54.414Z,98763.71
2023-01-19T13:36:31.700Z,98764.45
2023-01-19T13:39:08.470Z,98768.34
2023-01-19T13:41:44.994Z,98769.67
2023-01-19T13:44:19.922Z,98767.42
2023-01-19T13:46:53.774Z,98772.70
2023-01-19T13:49:31.606Z,98775.75
2023-01-19T13:52:15.455Z,98782.30
2023-01-19T13:55:00.540Z,98784.94
2023-01-19T13:57:35.901Z,98783.72
2023-01-19T14:00:18.865Z,98784.45
2023-01-19T14:03:02.739Z,98789.21
2023-01-19T14:05:38.503Z,98790.79
2023-01-19T14:08:18.271Z,98794.41
2023-01-19T14:11:03.237Z,98794.84
2023-01-19T14:13:40.272Z,98792.67
2023-01-19T14:16:37.411Z,98797.15
2023-01-19T14:19:09.735Z,98797.33
2023-01-19T14:21:41.864Z,98794.61
2023-01-19T14:24:20.324Z,98796.95
2023-01-19T14:26:54.848Z,98795.88
2023-01-19T14:29:29.034Z,98798.30
2023-01-19T14:32:18.505Z,98801.09
2023-01-19T14:35:12.484Z,98801.19
2023-01-19T14:37:51.331Z,98802.09
2023-01-19T14:40:26.831Z,98807.81
2023-01-19T14:43:03.999Z,98809.61
2023-01-19T14:45:39.373Z,98808.16
2023-01-19T14:48:19.402Z,98804.34
2023-01-19T14:51:03.684Z,98805.03
2023-01-19T14:53:39.556Z,98807.46
2023-01-19T14:56:12.056Z,98814.92
2023-01-19T14:58:44.414Z,98813.94
2023-01-19T15:01:15.255Z,98817.94
2023-01-19T15:03:50.565Z,98819.80
2023-01-19T15:06:24.553Z,98815.96
2023-01-19T15:08:57.126Z,98813.52
2023-01-19T15:11:32.233Z,98812.28
2023-01-19T15:14:05.319Z,98812.02
2023-01-19T15:16:40.296Z,98808.41
2023-01-19T15:19:16.666Z,98809.84
2023-01-19T15:21:48.799Z,98810.92
2023-01-19T15:24:23.451Z,98817.35
2023-01-19T15:27:02.772Z,98819.53
2023-01-19T15:29:37.667Z,98822.27
2023-01-19T15:32:15.076Z,98821.08
2023-01-19T15:34:52.682Z,98821.24
2023-01-19T15:37:42.501Z,98824.56
2023-01-19T15:40:16.701Z,98825.59
2023-01-19T15:42:53.240Z,98827.73
2023-01-19T15:45:51.582Z,98823.15
2023-01-19T15:48:33.460Z,98823.63
2023-01-19T15:51:13.845Z,98827.15
2023-01-19T15:54:11.762Z,98825.36
2023-01-19T15:56:50.969Z,98829.14
2023-01-19T15:59:28.865Z,98832.19
2023-01-19T16:02:12.776Z,98831.59
2023-01-19T16:04:59.815Z,98834.45
2023-01-19T16:07:40.489Z,98830.44
2023-01-19T16:13:36.665Z,98837.59
2023-01-19T16:16:16.396Z,98836.52
2023-01-19T16:18:50.337Z,98839.12
2023-01-19T16:21:27.607Z,98839.73
2023-01-19T16:24:03.142Z,98845.71
2023-01-19T16:26:43.165Z,98852.94
2023-01-19T16:29:15.877Z,98852.80
2023-01-19T16:31:48.412Z,98847.83
2023-01-19T16:34:20.902Z,98845.01
2023-01-19T16:36:53.926Z,98842.17
2023-01-19T16:39:26.479Z,98847.69
2023-01-19T16:42:01.912Z,98849.46
2023-01-19T16:44:37.406Z,98851.58
2023-01-19T16:47:09.831Z,98858.36
2023-01-19T16:49:42.378Z,98856.77
2023-01-19T16:52:14.752Z,98853.06
2023-01-19T16:54:47.522Z,98848.59
2023-01-19T16:57:20.004Z,98851.77
2023-01-19T16:59:52.278Z,98854.45
2023-01-19T17:02:24.844Z,98852.35
2023-01-19T17:05:00.342Z,98854.92
2023-01-19T17:07:36.316Z,98851.38
2023-01-19T17:10:11.343Z,98852.34
2023-01-19T17:12:44.084Z,98851.50
2023-01-19T17:15:17.127Z,98852.52
2023-01-19T17:17:50.242Z,98858.20
2023-01-19T17:20:22.624Z,98861.90
2023-01-19T17:22:56.129Z,98861.17
2023-01-19T17:25:28.733Z,98864.86
2023-01-19T17:28:02.933Z,98864.73
2023-01-19T17:30:36.507Z,98865.83
2023-01-19T17:33:09.648Z,98866.05
2023-01-19T17:35:46.754Z,98866.02
2023-01-19T17:38:19.374Z,98867.08
2023-01-19T17:40:54.771Z,98869.64
2023-01-19T17:43:27.509Z,98869.70
2023-01-19T17:46:03.844Z,98869.91
2023-01-19T17:48:39.372Z,98873.18
2023-01-19T17:51:15.501Z,98873.63
2023-01-19T17:53:50.795Z,98873.58
2023-01-19T17:56:27.763Z,98879.14
2023-01-19T17:59:00.703Z,98881.08
2023-01-19T18:01:34.539Z,98877.86
2023-01-19T18:04:10.553Z,98883.90
2023-01-19T18:06:47.233Z,98891.02
2023-01-19T18:09:19.716Z,98896.08
2023-01-19T18:11:52.303Z,98896.54
2023-01-19T18:14:27.542Z,98903.13
2023-01-19T18:17:00.585Z,98901.88
2023-01-19T18:19:33.504Z,98905.05
2023-01-19T18:22:08.266Z,98907.34
2023-01-19T18:24:43.842Z,98913.64
2023-01-19T18:27:17.646Z,98915.78
2023-01-19T18:30:01.139Z,98916.86
2023-01-19T18:32:35.987Z,98917.26
2023-01-19T18:35:10.300Z,98916.54
2023-01-19T18:37:44.855Z,98920.45
2023-01-19T18:40:17.825Z,98925.27
2023-01-19T18:42:50.397Z,98932.87
2023-01-19T18:45:23.000Z,98935.45
2023-01-19T18:47:58.547Z,98941.16
2023-01-19T18:50:31.629Z,98945.25
2023-01-19T18:53:04.175Z,98950.70
2023-01-19T18:55:36.844Z,98954.34
2023-01-19T18:58:09.275Z,98956.00
2023-01-19T19:00:39.959Z,98957.16
2023-01-19T19:03:12.341Z,98960.08
2023-01-19T19:05:48.013Z,98959.02
2023-01-19T19:08:20.612Z,98957.95
2023-01-19T19:10:53.191Z,98953.88
2023-01-19T19:13:25.662Z,98954.89
2023-01-19T19:16:05.618Z,98956.10
2023-01-19T19:18:50.143Z,98959.45
2023-01-19T19:21:25.743Z,98961.95
2023-01-19T19:24:01.061Z,98963.08
2023-01-19T19:26:37.227Z,98967.56
2023-01-19T19:29:09.510Z,98971.40
2023-01-19T19:31:46.222Z,98973.98
2023-01-19T19:34:18.617Z,98970.38
2023-01-19T19:37:01.281Z,98975.90
2023-01-19T19:39:41.090Z,98981.51
2023-01-19T19:42:13.618Z,98984.36
2023-01-19T19:44:46.379Z,98990.57
2023-01-19T19:47:19.010Z,98991.39
2023-01-19T19:49:51.610Z,98989.81
2023-01-19T19:52:23.722Z,98987.52
2023-01-19T19:54:56.072Z,98989.48
2023-01-19T19:57:26.528Z,98993.45
2023-01-19T19:59:59.279Z,98999.14
2023-01-19T20:02:39.901Z,99002.67
2023-01-19T20:05:17.909Z,99003.45
2023-01-19T20:07:51.118Z,99005.20
2023-01-19T20:10:25.115Z,99008.54
2023-01-19T20:13:00.352Z,99006.86
2023-01-19T20:15:39.126Z,99009.90
2023-01-19T20:18:22.169Z,99012.19
2023-01-19T20:21:00.516Z,99016.30
2023-01-19T20:23:33.660Z,99028.09
2023-01-19T20:26:09.252Z,99037.16
2023-01-19T20:28:43.348Z,99042.02
2023-01-19T20:31:19.782Z,99045.63
2023-01-19T20:33:56.781Z,99040.30
2023-01-19T20:36:41.873Z,99031.09
2023-01-19T20:39:30.125Z,99025.50
2023-01-19T20:42:09.907Z,99026.09
2023-01-19T20:44:43.007Z,99032.22
2023-01-19T20:47:15.944Z,99038.42
2023-01-19T20:49:48.429Z,99042.20
2023-01-19T20:52:24.079Z,99037.63
2023-01-19T20:54:56.618Z,99042.80
2023-01-19T20:57:29.158Z,99046.99
2023-01-19T21:00:01.912Z,99040.56
2023-01-19T21:02:34.559Z,99040.55
2023-01-19T21:05:13.687Z,99043.77
2023-01-19T21:07:51.425Z,99041.38
2023-01-19T21:10:24.073Z,99039.52
2023-01-19T21:12:59.560Z,99042.69
2023-01-19T21:15:35.198Z,99040.24
2023-01-19T21:18:16.250Z,99039.60
2023-01-19T21:20:48.218Z,99041.59
2023-01-19T21:23:40.449Z,99049.92
2023-01-19T21:26:21.305Z,99058.75
2023-01-19T21:28:53.627Z,99066.16
2023-01-19T21:31:30.015Z,99072.52
2023-01-19T21:34:02.799Z,99076.20
2023-01-19T21:36:35.292Z,99077.77
2023-01-19T21:39:08.288Z,99076.21
2023-01-19T21:41:43.811Z,99085.61
2023-01-19T21:44:16.446Z,99094.88
2023-01-19T21:46:48.520Z,99097.41
2023-01-19T21:49:21.822Z,99091.73
2023-01-19T21:51:57.047Z,99090.55
2023-01-19T21:54:31.973Z,99090.27
2023-01-19T21:57:06.806Z,99087.23
2023-01-19T21:59:37.639Z,99089.88
2023-01-19T22:02:12.979Z,99095.37
2023-01-19T22:04:45.472Z,99093.07
2023-01-19T22:07:20.400Z,99093.19
2023-01-19T22:09:55.533Z,99097.05
2023-01-19T22:12:27.847Z,99094.14
2023-01-19T22:15:02.971Z,99098.24
2023-01-19T22:17:37.956Z,99102.73
2023-01-19T22:20:13.758Z,99103.29
2023-01-19T22:22:48.782Z,99105.05
2023-01-19T22:25:35.165Z,99107.66
2023-01-19T22:28:14.677Z,99109.58
2023-01-19T22:30:49.724Z,99105.33
2023-01-19T22:33:25.231Z,99107.79
2023-01-19T22:35:56.722Z,99110.11
2023-01-19T22:38:29.074Z,99112.28
2023-01-19T22:41:11.819Z,99110.34
2023-01-19T22:43:43.946Z,99112.07
2023-01-19T22:46:20.193Z,99111.12
2023-01-19T22:48:53.205Z,99110.65
2023-01-19T22:51:26.999Z,99109.11
2023-01-19T22:54:19.303Z,99109.64
2023-01-19T22:56:51.684Z,99115.54
2023-01-19T22:59:26.571Z,99116.02
2023-01-19T23:02:12.442Z,99116.88
2023-01-19T23:04:49.572Z,99123.59
2023-01-19T23:07:24.830Z,99124.98
2023-01-19T23:09:56.983Z,99125.02
2023-01-19T23:12:29.229Z,99123.74
2023-01-19T23:15:04.673Z,99129.77
2023-01-19T23:17:43.824Z,99131.19
2023-01-19T23:20:17.055Z,99132.30
2023-01-19T23:22:59.384Z,99137.38
2023-01-19T23:25:35.959Z,99136.92
2023-01-19T23:28:11.350Z,99136.09
2023-01-19T23:30:43.652Z,99133.94
2023-01-19T23:33:15.951Z,99135.79
2023-01-19T23:35:48.456Z,99135.41
2023-01-19T23:38:23.335Z,99140.84
2023-01-19T23:41:14.444Z,99141.70
2023-01-19T23:43:49.840Z,99141.40
2023-01-19T23:46:25.811Z,99149.27
2023-01-19T23:48:58.333Z,99156.19
2023-01-19T23:51:32.885Z,99159.95
2023-01-19T23:54:08.260Z,99162.27
2023-01-19T23:56:47.825Z,99165.48
2023-01-19T23:59:18.456Z,99166.30
